createdAt,value
2022-10-27T00:02:50.981Z,18.66
2022-10-27T00:05:22.795Z,18.74
2022-10-27T00:07:55.509Z,18.74
2022-10-27T00:10:32.081Z,18.57
2022-10-27T00:13:01.314Z,18.74
2022-10-27T00:15:32.258Z,18.71
2022-10-27T00:18:03.267Z,18.80
2022-10-27T00:20:33.523Z,18.79
2022-10-27T00:23:04.251Z,18.80
2022-10-27T00:25:32.799Z,18.70
2022-10-27T00:28:02.537Z,18.82
2022-10-27T00:30:31.315Z,18.68
2022-10-27T00:33:03.071Z,18.61
2022-10-27T00:35:32.677Z,18.58
2022-10-27T00:38:01.613Z,18.68
2022-10-27T00:40:30.664Z,18.57
2022-10-27T00:42:59.963Z,18.61
2022-10-27T00:45:30.212Z,18.44
2022-10-27T00:47:59.398Z,18.42
2022-10-27T00:50:29.789Z,18.38
2022-10-27T00:53:00.682Z,18.37
2022-10-27T00:55:36.474Z,18.33
2022-10-27T00:58:10.833Z,18.22
2022-10-27T01:00:43.816Z,18.22
2022-10-27T01:03:21.812Z,18.12
2022-10-27T01:05:55.907Z,18.06
2022-10-27T01:08:26.010Z,18.02
2022-10-27T01:10:56.568Z,17.89
2022-10-27T01:13:26.572Z,17.71
2022-10-27T01:16:10.127Z,17.73
2022-10-27T01:18:56.390Z,17.75
2022-10-27T01:22:07.190Z,17.62
2022-10-27T01:25:22.630Z,17.72
2022-10-27T01:28:35.172Z,17.55
2022-10-27T01:31:12.746Z,17.55
2022-10-27T01:33:50.763Z,17.54
2022-10-27T01:36:37.965Z,17.44
2022-10-27T01:39:13.001Z,17.47
2022-10-27T01:41:49.741Z,17.42
2022-10-27T01:44:31.081Z,17.15
2022-10-27T01:47:04.711Z,17.37
2022-10-27T01:49:37.790Z,17.28
2022-10-27T01:52:08.875Z,17.08
2022-10-27T01:54:42.371Z,17.42
2022-10-27T01:57:29.416Z,17.48
2022-10-27T02:00:06.632Z,17.62
2022-10-27T02:02:47.028Z,17.49
2022-10-27T02:05:23.546Z,17.37
2022-10-27T02:08:01.553Z,17.27
2022-10-27T02:10:35.821Z,17.47
2022-10-27T02:13:06.454Z,17.65
2022-10-27T02:15:40.988Z,17.36
2022-10-27T02:18:21.995Z,17.28
2022-10-27T02:21:05.910Z,17.24
2022-10-27T02:23:38.993Z,17.20
2022-10-27T02:26:16.630Z,17.16
2022-10-27T02:28:52.074Z,17.08
2022-10-27T02:31:25.723Z,17.59
2022-10-27T02:34:01.159Z,17.57
2022-10-27T02:36:32.206Z,16.96
2022-10-27T02:39:02.862Z,17.34
2022-10-27T02:41:32.286Z,17.23
2022-10-27T02:44:04.708Z,17.15
2022-10-27T02:46:34.348Z,17.10
2022-10-27T02:49:05.968Z,16.88
2022-10-27T02:51:36.806Z,17.14
2022-10-27T02:54:06.711Z,17.47
2022-10-27T02:56:38.897Z,17.37
2022-10-27T02:59:09.642Z,17.39
2022-10-27T03:01:40.489Z,16.89
2022-10-27T03:04:13.964Z,17.26
2022-10-27T03:06:44.227Z,17.30
2022-10-27T03:09:13.534Z,17.66
2022-10-27T03:11:46.138Z,17.42
2022-10-27T03:14:16.626Z,17.23
2022-10-27T03:16:49.779Z,17.60
2022-10-27T03:19:21.690Z,16.99
2022-10-27T03:21:51.567Z,17.58
2022-10-27T03:24:21.040Z,17.53
2022-10-27T03:26:50.568Z,17.63
2022-10-27T03:29:20.286Z,17.68
2022-10-27T03:31:49.335Z,17.30
2022-10-27T03:34:22.763Z,17.43
2022-10-27T03:36:53.023Z,17.54
2022-10-27T03:39:22.087Z,17.22
2022-10-27T03:41:51.885Z,17.12
2022-10-27T03:44:27.748Z,17.11
2022-10-27T03:46:57.588Z,17.01
2022-10-27T03:49:28.915Z,17.15
2022-10-27T03:51:58.605Z,16.98
2022-10-27T03:54:31.935Z,17.40
2022-10-27T03:57:01.530Z,17.08
2022-10-27T03:59:30.583Z,17.35
2022-10-27T04:02:02.310Z,17.41
2022-10-27T04:04:36.251Z,17.77
2022-10-27T04:07:05.983Z,17.69
2022-10-27T04:09:36.444Z,17.79
2022-10-27T04:12:06.365Z,17.88
2022-10-27T04:14:35.897Z,17.71
2022-10-27T04:17:04.859Z,17.62
2022-10-27T04:19:39.145Z,17.64
2022-10-27T04:22:09.423Z,17.41
2022-10-27T04:24:40.625Z,17.42
2022-10-27T04:29:39.699Z,17.45
2022-10-27T04:32:08.329Z,17.55
2022-10-27T04:34:40.042Z,17.43
2022-10-27T04:37:09.033Z,17.52
2022-10-27T04:39:38.852Z,17.32
2022-10-27T04:42:09.853Z,17.35
2022-10-27T04:44:38.556Z,17.29
2022-10-27T04:47:08.123Z,17.17
2022-10-27T04:49:39.107Z,17.26
2022-10-27T04:52:09.073Z,17.41
2022-10-27T04:54:38.303Z,17.32
2022-10-27T04:57:08.569Z,17.41
2022-10-27T04:59:38.247Z,17.27
2022-10-27T05:02:07.506Z,17.07
2022-10-27T05:04:37.892Z,16.94
2022-10-27T05:07:09.822Z,17.01
2022-10-27T05:09:38.925Z,16.93
2022-10-27T05:12:08.721Z,17.25
2022-10-27T05:14:37.925Z,16.85
2022-10-27T05:17:06.861Z,17.34
2022-10-27T05:19:36.419Z,17.27
2022-10-27T05:22:06.752Z,17.28
2022-10-27T05:24:42.002Z,17.39
2022-10-27T05:27:11.271Z,17.10
2022-10-27T05:29:41.625Z,17.12
2022-10-27T05:32:16.838Z,17.29
2022-10-27T05:34:47.485Z,17.16
2022-10-27T05:37:18.013Z,17.40
2022-10-27T05:39:47.702Z,17.29
2022-10-27T05:42:18.752Z,17.10
2022-10-27T05:44:48.571Z,17.11
2022-10-27T05:47:21.971Z,16.79
2022-10-27T05:49:52.697Z,16.89
2022-10-27T05:52:26.935Z,17.03
2022-10-27T05:54:55.493Z,17.08
2022-10-27T05:57:25.500Z,16.88
2022-10-27T05:59:55.075Z,16.59
2022-10-27T06:02:24.761Z,16.88
2022-10-27T06:04:53.905Z,17.14
2022-10-27T06:07:25.155Z,16.93
2022-10-27T06:09:56.920Z,16.63
2022-10-27T06:12:40.887Z,16.47
2022-10-27T06:15:11.524Z,17.06
2022-10-27T06:17:40.809Z,16.57
2022-10-27T06:20:13.266Z,16.88
2022-10-27T06:22:43.782Z,16.97
2022-10-27T06:25:15.962Z,16.82
2022-10-27T06:27:46.683Z,16.62
2022-10-27T06:30:17.558Z,16.58
2022-10-27T06:32:46.431Z,16.59
2022-10-27T06:35:16.116Z,16.71
2022-10-27T06:37:47.984Z,16.86
2022-10-27T06:40:19.337Z,17.13
2022-10-27T06:43:06.102Z,17.15
2022-10-27T06:45:37.551Z,16.97
2022-10-27T06:48:09.840Z,17.26
2022-10-27T06:50:41.009Z,16.96
2022-10-27T06:53:12.749Z,17.23
2022-10-27T06:55:41.851Z,17.15
2022-10-27T06:58:11.254Z,17.28
2022-10-27T07:00:40.559Z,17.19
2022-10-27T07:05:40.932Z,17.14
2022-10-27T07:08:13.709Z,16.95
2022-10-27T07:10:42.979Z,17.18
2022-10-27T07:13:12.993Z,17.45
2022-10-27T07:15:42.734Z,16.99
2022-10-27T07:18:13.045Z,17.25
2022-10-27T07:20:42.919Z,17.00
2022-10-27T07:23:14.488Z,17.39
2022-10-27T07:28:18.937Z,17.35
2022-10-27T07:30:49.768Z,17.34
2022-10-27T07:33:19.571Z,17.56
2022-10-27T07:35:52.451Z,17.72
2022-10-27T07:38:38.437Z,17.33
2022-10-27T07:41:11.120Z,17.05
2022-10-27T07:43:40.987Z,16.88
2022-10-27T07:46:10.949Z,17.00
2022-10-27T07:48:41.562Z,16.78
2022-10-27T07:51:12.117Z,17.42
2022-10-27T07:53:43.950Z,17.56
2022-10-27T07:56:13.555Z,17.20
2022-10-27T07:58:43.395Z,17.32
2022-10-27T08:01:26.990Z,17.33
2022-10-27T08:03:56.922Z,17.38
2022-10-27T08:06:29.851Z,17.58
2022-10-27T08:09:01.205Z,17.80
2022-10-27T08:11:31.905Z,18.29
2022-10-27T08:14:02.526Z,17.94
2022-10-27T08:16:31.554Z,18.05
2022-10-27T08:19:15.856Z,17.91
2022-10-27T08:21:44.546Z,18.24
2022-10-27T08:35:43.198Z,18.49
2022-10-27T08:41:48.177Z,18.59
2022-10-27T08:45:06.440Z,19.05
2022-10-27T08:47:41.153Z,19.24
2022-10-27T08:50:17.309Z,19.40
2022-10-27T08:53:16.143Z,19.21
2022-10-27T08:58:51.954Z,19.53
2022-10-27T09:14:46.228Z,19.77
2022-10-27T09:17:28.734Z,20.03
2022-10-27T09:20:02.831Z,20.13
2022-10-27T09:25:14.764Z,19.78
2022-10-27T09:27:46.343Z,19.91
2022-10-27T09:30:18.100Z,19.81
2022-10-27T09:32:53.964Z,20.34
2022-10-27T09:35:30.204Z,20.32
2022-10-27T09:38:03.185Z,20.22
2022-10-27T09:40:35.038Z,20.13
2022-10-27T09:43:04.310Z,20.42
2022-10-27T09:45:33.037Z,20.68
2022-10-27T09:48:11.157Z,20.87
2022-10-27T09:50:51.563Z,21.25
2022-10-27T09:53:48.732Z,22.14
2022-10-27T09:56:25.714Z,21.07
2022-10-27T09:59:03.104Z,21.10
2022-10-27T10:01:50.918Z,21.15
2022-10-27T10:04:30.265Z,21.91
2022-10-27T10:10:02.999Z,21.92
2022-10-27T10:12:40.431Z,21.94
2022-10-27T10:15:33.312Z,21.36
2022-10-27T10:18:05.568Z,21.63
2022-10-27T10:23:23.302Z,21.55
2022-10-27T10:25:55.367Z,21.61
2022-10-27T10:28:36.879Z,21.37
2022-10-27T10:31:10.758Z,21.57
2022-10-27T10:33:57.408Z,21.63
2022-10-27T10:36:43.710Z,22.11
2022-10-27T10:39:25.457Z,21.30
2022-10-27T10:42:20.205Z,21.50
2022-10-27T10:45:07.985Z,22.05
2022-10-27T10:47:40.392Z,21.66
2022-10-27T10:50:14.927Z,22.30
2022-10-27T10:52:52.627Z,22.12
2022-10-27T10:55:29.704Z,22.24
2022-10-27T10:57:59.999Z,22.19
2022-10-27T11:00:32.831Z,21.99
2022-10-27T11:03:05.775Z,21.96
2022-10-27T11:05:38.026Z,22.10
2022-10-27T11:08:21.782Z,22.08
2022-10-27T11:10:55.402Z,21.87
2022-10-27T11:13:52.304Z,21.72
2022-10-27T11:16:24.974Z,21.62
2022-10-27T11:18:58.071Z,22.01
2022-10-27T11:21:36.364Z,21.83
2022-10-27T11:24:16.835Z,21.66
2022-10-27T11:27:00.224Z,21.74
2022-10-27T11:29:44.347Z,22.04
2022-10-27T11:32:22.016Z,22.35
2022-10-27T11:35:08.405Z,22.28
2022-10-27T11:37:51.437Z,22.36
2022-10-27T11:40:34.056Z,22.83
2022-10-27T11:43:15.830Z,22.16
2022-10-27T11:45:55.179Z,22.26
2022-10-27T11:48:32.788Z,22.77
2022-10-27T11:51:08.644Z,22.66
2022-10-27T11:53:40.289Z,22.62
2022-10-27T11:56:44.470Z,22.53
2022-10-27T11:59:25.342Z,22.85
2022-10-27T12:02:22.545Z,22.20
2022-10-27T12:04:57.944Z,22.04
2022-10-27T12:07:45.836Z,22.16
2022-10-27T12:10:30.433Z,22.34
2022-10-27T12:13:09.762Z,22.66
2022-10-27T12:15:47.366Z,22.80
2022-10-27T12:18:28.338Z,22.90
2022-10-27T12:21:04.308Z,22.66
2022-10-27T12:23:39.469Z,22.34
2022-10-27T12:26:16.170Z,22.40
2022-10-27T12:28:48.088Z,22.34
2022-10-27T12:31:22.382Z,21.96
2022-10-27T12:33:55.885Z,21.89
2022-10-27T12:36:35.244Z,22.39
2022-10-27T12:39:16.153Z,21.86
2022-10-27T12:41:54.507Z,21.88
2022-10-27T12:44:37.951Z,22.24
2022-10-27T12:47:27.615Z,21.61
2022-10-27T12:50:13.141Z,21.80
2022-10-27T12:52:51.092Z,21.66
2022-10-27T12:55:46.868Z,22.01
2022-10-27T12:58:26.518Z,21.94
2022-10-27T13:01:10.401Z,22.38
2022-10-27T13:04:08.807Z,22.53
2022-10-27T13:07:03.044Z,22.18
2022-10-27T13:13:24.922Z,22.27
2022-10-27T13:16:46.106Z,22.68
2022-10-27T13:19:28.006Z,22.37
2022-10-27T13:22:24.383Z,22.86
2022-10-27T13:25:04.646Z,22.63
2022-10-27T13:27:44.239Z,22.47
2022-10-27T13:33:37.836Z,22.85
2022-10-27T13:36:24.330Z,23.15
2022-10-27T13:39:46.211Z,22.49
2022-10-27T13:52:15.841Z,22.80
2022-10-27T13:55:08.390Z,22.95
2022-10-27T13:58:51.443Z,22.72
2022-10-27T14:01:43.412Z,23.14
2022-10-27T14:08:22.655Z,23.57
2022-10-27T14:10:52.419Z,23.06
2022-10-27T14:13:28.480Z,23.36
2022-10-27T14:16:17.963Z,23.68
2022-10-27T14:18:49.036Z,24.17
2022-10-27T14:21:25.067Z,23.67
2022-10-27T14:23:56.716Z,23.20
2022-10-27T14:26:32.946Z,23.65
2022-10-27T14:29:07.749Z,23.82
2022-10-27T14:31:38.345Z,23.63
2022-10-27T14:34:22.649Z,23.76
2022-10-27T14:36:54.782Z,23.36
2022-10-27T14:39:33.613Z,23.42
2022-10-27T14:42:06.567Z,23.42
2022-10-27T14:44:39.621Z,23.92
2022-10-27T14:47:14.689Z,23.65
2022-10-27T14:49:50.139Z,23.43
2022-10-27T14:52:25.221Z,23.91
2022-10-27T14:54:58.502Z,23.92
2022-10-27T14:57:35.187Z,24.15
2022-10-27T15:00:22.841Z,23.88
2022-10-27T15:02:52.634Z,23.82
2022-10-27T15:05:26.974Z,23.75
2022-10-27T15:07:59.516Z,23.51
2022-10-27T15:10:37.736Z,23.73
2022-10-27T15:13:09.162Z,23.75
2022-10-27T15:15:43.373Z,23.74
2022-10-27T15:18:23.885Z,23.61
2022-10-27T15:20:53.880Z,23.74
2022-10-27T15:23:23.886Z,23.71
2022-10-27T15:25:58.682Z,23.53
2022-10-27T15:28:31.927Z,23.57
2022-10-27T15:31:01.250Z,23.57
2022-10-27T15:33:41.201Z,23.18
2022-10-27T15:36:27.761Z,22.88
2022-10-27T15:38:56.485Z,23.21
2022-10-27T15:41:35.360Z,23.03
2022-10-27T15:44:19.667Z,22.76
2022-10-27T15:46:48.933Z,22.95
2022-10-27T15:49:31.035Z,22.58
2022-10-27T15:52:04.406Z,22.73
2022-10-27T15:54:36.527Z,22.75
2022-10-27T15:57:27.548Z,22.52
2022-10-27T16:00:17.179Z,22.63
2022-10-27T16:02:48.659Z,22.71
2022-10-27T16:05:44.332Z,22.12
2022-10-27T16:08:42.564Z,22.09
2022-10-27T16:11:15.077Z,22.45
2022-10-27T16:13:49.562Z,22.40
2022-10-27T16:16:19.120Z,22.60
2022-10-27T16:18:48.568Z,21.72
2022-10-27T16:21:30.045Z,22.27
2022-10-27T16:24:03.246Z,22.11
2022-10-27T16:26:32.887Z,22.04
2022-10-27T16:29:03.266Z,22.21
2022-10-27T16:31:32.438Z,22.14
2022-10-27T16:34:01.051Z,21.65
2022-10-27T16:36:29.853Z,21.89
2022-10-27T16:38:58.222Z,21.83
2022-10-27T16:41:30.375Z,22.07
2022-10-27T16:43:59.214Z,22.05
2022-10-27T16:46:29.955Z,22.01
2022-10-27T16:49:05.036Z,21.65
2022-10-27T16:51:34.996Z,21.91
2022-10-27T16:54:09.847Z,21.75
2022-10-27T16:56:53.617Z,21.92
2022-10-27T16:59:26.220Z,21.79
2022-10-27T17:01:59.368Z,21.55
2022-10-27T17:04:33.594Z,21.38
2022-10-27T17:18:44.188Z,20.77
2022-10-27T17:21:16.394Z,20.76
2022-10-27T17:23:45.866Z,20.61
2022-10-27T17:26:18.157Z,20.80
2022-10-27T17:28:52.489Z,20.68
2022-10-27T17:31:23.679Z,20.99
2022-10-27T17:34:02.314Z,21.02
2022-10-27T17:36:33.670Z,20.98
2022-10-27T17:42:00.324Z,20.82
2022-10-27T17:44:33.465Z,20.64
2022-10-27T17:47:11.047Z,20.84
2022-10-27T17:49:48.545Z,20.72
2022-10-27T17:52:29.278Z,20.52
2022-10-27T17:58:08.364Z,20.83
2022-10-27T18:00:43.059Z,21.12
2022-10-27T18:03:13.403Z,20.89
2022-10-27T18:05:46.784Z,20.68
2022-10-27T18:08:24.353Z,20.86
2022-10-27T18:10:56.915Z,20.51
2022-10-27T18:13:28.178Z,20.83
2022-10-27T18:16:01.981Z,21.01
2022-10-27T18:18:33.647Z,20.90
2022-10-27T18:21:09.008Z,21.06
2022-10-27T18:23:44.437Z,20.75
2022-10-27T18:26:15.352Z,20.59
2022-10-27T18:28:49.890Z,20.39
2022-10-27T18:31:23.776Z,20.68
2022-10-27T18:33:54.968Z,20.71
2022-10-27T18:36:25.922Z,20.84
2022-10-27T18:38:57.306Z,20.92
2022-10-27T18:41:33.211Z,21.07
2022-10-27T18:44:02.464Z,20.97
2022-10-27T18:46:34.939Z,20.98
2022-10-27T18:49:04.426Z,20.80
2022-10-27T18:51:51.882Z,20.82
2022-10-27T18:54:36.170Z,20.98
2022-10-27T18:57:05.410Z,20.94
2022-10-27T18:59:36.818Z,20.89
2022-10-27T19:02:07.784Z,20.55
2022-10-27T19:04:38.890Z,20.66
2022-10-27T19:07:07.382Z,20.73
2022-10-27T19:09:38.279Z,20.64
2022-10-27T19:12:09.006Z,20.50
2022-10-27T19:14:39.499Z,20.52
2022-10-27T19:17:09.525Z,20.51
2022-10-27T19:19:42.138Z,20.34
2022-10-27T19:22:18.774Z,20.58
2022-10-27T19:24:51.939Z,20.43
2022-10-27T19:27:23.258Z,20.11
2022-10-27T19:29:53.907Z,20.41
2022-10-27T19:32:26.962Z,20.01
2022-10-27T19:37:54.282Z,20.11
2022-10-27T19:40:28.846Z,20.19
2022-10-27T19:42:59.804Z,19.66
2022-10-27T19:45:30.103Z,20.00
2022-10-27T19:48:02.950Z,19.98
2022-10-27T19:50:37.410Z,20.02
2022-10-27T19:53:06.483Z,19.94
2022-10-27T19:55:36.903Z,19.82
2022-10-27T19:58:06.300Z,20.24
2022-10-27T20:00:49.445Z,20.13
2022-10-27T20:03:23.259Z,19.94
2022-10-27T20:05:56.314Z,19.96
2022-10-27T20:08:27.402Z,20.09
2022-10-27T20:11:07.324Z,19.95
2022-10-27T20:13:38.121Z,20.07
2022-10-27T20:16:09.009Z,20.45
2022-10-27T20:18:38.688Z,19.98
2022-10-27T20:21:07.725Z,20.27
2022-10-27T20:23:38.027Z,20.39
2022-10-27T20:26:28.520Z,19.98
2022-10-27T20:28:57.742Z,20.21
2022-10-27T20:31:26.644Z,20.60
2022-10-27T20:33:55.839Z,20.50
2022-10-27T20:36:25.460Z,20.71
2022-10-27T20:38:55.410Z,20.78
2022-10-27T20:41:29.823Z,20.97
2022-10-27T20:44:01.163Z,20.88
2022-10-27T20:46:33.579Z,21.00
2022-10-27T20:49:04.290Z,20.95
2022-10-27T20:51:34.903Z,20.94
2022-10-27T20:54:04.749Z,20.99
2022-10-27T20:56:37.260Z,20.97
2022-10-27T20:59:07.781Z,20.99
2022-10-27T21:01:39.484Z,20.91
2022-10-27T21:04:12.159Z,21.01
2022-10-27T21:06:44.856Z,20.97
2022-10-27T21:09:15.793Z,21.03
2022-10-27T21:11:47.936Z,20.95
2022-10-27T21:14:20.381Z,20.93
2022-10-27T21:16:52.020Z,20.92
2022-10-27T21:19:21.595Z,20.85
2022-10-27T21:21:50.457Z,20.89
2022-10-27T21:24:22.731Z,20.77
2022-10-27T21:26:54.211Z,20.65
2022-10-27T21:29:23.293Z,20.49
2022-10-27T21:31:54.120Z,20.48
2022-10-27T21:34:27.773Z,20.44
2022-10-27T21:36:56.561Z,20.45
2022-10-27T21:39:25.077Z,20.68
2022-10-27T21:41:55.934Z,20.52
2022-10-27T21:44:27.280Z,20.72
2022-10-27T21:46:57.855Z,20.62
2022-10-27T21:49:26.484Z,20.64
2022-10-27T21:51:54.941Z,20.61
2022-10-27T21:54:26.324Z,20.58
2022-10-27T21:56:59.175Z,20.56
2022-10-27T21:59:27.673Z,20.57
2022-10-27T22:01:56.295Z,20.33
2022-10-27T22:04:27.165Z,20.46
2022-10-27T22:06:58.857Z,20.39
2022-10-27T22:09:29.601Z,20.40
2022-10-27T22:11:59.987Z,20.33
2022-10-27T22:14:34.034Z,20.35
2022-10-27T22:17:04.902Z,20.33
2022-10-27T22:19:34.486Z,20.30
2022-10-27T22:24:42.394Z,20.09
2022-10-27T22:27:15.631Z,19.99
2022-10-27T22:29:49.055Z,19.95
2022-10-27T22:32:17.864Z,20.11
2022-10-27T22:34:48.275Z,20.13
2022-10-27T22:37:19.228Z,20.17
2022-10-27T22:39:49.449Z,20.20
2022-10-27T22:42:20.790Z,20.18
2022-10-27T22:44:49.826Z,20.21
2022-10-27T22:47:18.756Z,20.21
2022-10-27T22:49:47.888Z,20.13
2022-10-27T22:52:16.240Z,19.77
2022-10-27T22:54:45.030Z,20.02
2022-10-27T22:57:13.640Z,19.92
2022-10-27T22:59:44.126Z,19.80
2022-10-27T23:02:13.362Z,19.90
2022-10-27T23:04:46.514Z,19.99
2022-10-27T23:07:17.271Z,20.07
2022-10-27T23:09:46.151Z,19.61
2022-10-27T23:12:14.621Z,19.97
2022-10-27T23:14:48.860Z,19.97
2022-10-27T23:17:22.635Z,20.29
2022-10-27T23:19:53.165Z,19.88
2022-10-27T23:22:22.581Z,20.26
2022-10-27T23:24:51.387Z,20.08
2022-10-27T23:27:20.369Z,20.07
2022-10-27T23:29:51.278Z,19.67
2022-10-27T23:32:20.801Z,19.89
2022-10-27T23:34:49.896Z,19.98
2022-10-27T23:37:20.144Z,20.06
2022-10-27T23:39:50.833Z,19.35
2022-10-27T23:42:19.642Z,20.08
2022-10-27T23:44:51.378Z,19.80
2022-10-27T23:47:20.072Z,19.75
2022-10-27T23:49:50.238Z,19.74
2022-10-27T23:52:19.191Z,19.75
2022-10-27T23:54:47.753Z,19.71
2022-10-27T23:57:17.382Z,19.55
2022-10-27T23:59:46.646Z,19.27
